Sandy City
, Sandy
Last Weather Update:05/18/2012 10:00:00 AM
Date
ETo
ETc
Rain
Irrigation
Req
Temp
Max
Temp
Min
Temp
Avg
Avg RH
Avg Wind
Avg Solar
inches
inches
incehs
inches
F
F
F
%
%
watts/m2
04/01/2012 0.03" 0.00" 0.14" -0.11" 67.6° 34.3° 45.4° 66.8% 0.7 MPH 87.6w/m2
04/02/2012 0.14" 0.01" 0.00" 0.01" 50.3° 30.1° 41.0° 44.8% 0.6 MPH 315.6w/m2
04/03/2012 0.15" 0.01" 0.00" 0.01" 60.0° 32.6° 47.0° 53.2% 0.2 MPH 317.8w/m2
04/04/2012 0.17" 0.01" 0.00" 0.01" 73.8° 42.1° 57.4° 39.0% 0.6 MPH 296.8w/m2
04/05/2012 0.08" 0.01" 0.00" 0.01" 50.6° 36.1° 44.7° 53.8% 0.3 MPH 182.2w/m2
04/06/2012 0.07" 0.01" 0.02" -0.01" 44.0° 30.3° 37.3° 66.9% 0.5 MPH 190.6w/m2
04/07/2012 0.16" 0.02" 0.00" 0.02" 64.0° 25.8° 43.7° 44.2% 0.2 MPH 327.9w/m2
04/08/2012 0.18" 0.03" 0.00" 0.03" 74.1° 34.9° 53.7° 34.9% 0.3 MPH 334.8w/m2
04/09/2012 0.18" 0.03" 0.00" 0.03" 78.1° 41.5° 59.2° 28.3% 0.4 MPH 308.8w/m2
04/10/2012 0.15" 0.03" 0.00" 0.03" 79.9° 47.8° 63.0° 27.2% 0.5 MPH 241.6w/m2
04/11/2012 0.14" 0.03" 0.29" -0.20" 74.5° 43.5° 59.3° 38.7% 0.7 MPH 217.0w/m2
04/12/2012 0.06" 0.01" 0.46" -0.35" 49.4° 34.1° 43.3° 82.3% 0.6 MPH 125.1w/m2
04/13/2012 0.13" 0.03" 0.01" 0.03" 55.3° 34.4° 45.4° 70.8% 0.5 MPH 280.0w/m2
04/14/2012 0.06" 0.02" 0.51" -0.39" 49.4° 37.9° 42.8° 90.7% 0.3 MPH 140.6w/m2
04/15/2012 0.13" 0.04" 0.00" 0.04" 56.8° 37.4° 47.0° 61.9% 0.3 MPH 270.6w/m2
04/16/2012 0.16" 0.05" 0.00" 0.05" 62.9° 38.9° 52.3° 40.4% 0.3 MPH 328.0w/m2
04/17/2012 0.10" 0.03" 0.37" -0.26" 59.0° 43.0° 51.7° 68.2% 0.5 MPH 212.7w/m2
04/18/2012 0.05" 0.02" 0.03" -0.01" 60.6° 44.1° 52.4° 71.5% 0.5 MPH 103.5w/m2
04/19/2012 0.12" 0.05" 0.00" 0.05" 62.4° 40.5° 51.3° 72.1% 0.3 MPH 236.6w/m2
04/20/2012 0.16" 0.07" 0.00" 0.07" 70.5° 41.7° 56.9° 60.8% 0.2 MPH 294.4w/m2
04/21/2012 0.21" 0.09" 0.00" 0.09" 79.8° 47.3° 63.9° 48.4% 0.3 MPH 347.6w/m2
04/22/2012 0.20" 0.09" 0.00" 0.09" 86.0° 49.1° 68.5° 38.3% 0.3 MPH 333.4w/m2
04/23/2012 0.18" 0.08" 0.00" 0.08" 86.8° 54.2° 71.1° 34.4% 0.3 MPH 280.1w/m2
04/24/2012 0.22" 0.11" 0.00" 0.11" 86.1° 61.2° 74.9° 21.4% 0.7 MPH 346.0w/m2
04/25/2012 0.11" 0.06" 0.00" 0.06" 76.3° 60.1° 68.0° 41.9% 0.5 MPH 177.4w/m2
04/26/2012 0.15" 0.08" 0.50" -0.32" 78.1° 42.0° 64.6° 46.9% 0.8 MPH 225.8w/m2
04/27/2012 0.16" 0.08" 0.23" -0.10" 51.8° 39.7° 45.3° 63.5% 0.6 MPH 338.0w/m2
04/28/2012 0.18" 0.10" 0.00" 0.10" 54.0° 33.7° 45.5° 41.7% 0.4 MPH 377.1w/m2
04/29/2012 0.18" 0.11" 0.00" 0.11" 61.9° 40.4° 51.7° 47.0% 0.3 MPH 355.1w/m2
04/30/2012 0.14" 0.09" 0.00" 0.09" 74.3° 41.6° 60.5° 39.9% 0.5 MPH 242.7w/m2
Totals: 4.17" 1.39" 2.56" -0.66" 86.8° 25.8° 53.6° 51.3% 0.4 MPH 261.2w/m2